Terminal Aerodrome Forecast
Issued by NWS

Home | Current Version | Previous Version | Text Only | Print | Product List | Glossary On
Versions: 1 2 3 4 5 6 7 8 9 10 11 12 13 14 15 16 17 18 19 20 21 22 23 24 25 26
196
FTUS41 KOKX 090232 AAA
TAFTEB
TAF AMD
KTEB 090232Z 0903/0924 05006KT P6SM -SN BKN015
     FM090500 04005KT P6SM OVC015
     FM091200 04008KT P6SM OVC015
     FM092200 06005KT P6SM OVC015=

USA.gov is the U.S. government's official web portal to all federal, state and local government web resources and services.